createdAt,value
2019-05-06T00:02:51.450Z,5.53
2019-05-06T00:07:59.175Z,5.30
2019-05-06T00:13:06.934Z,4.93
2019-05-06T00:18:14.644Z,5.83
2019-05-06T00:23:27.446Z,5.97
2019-05-06T00:28:40.532Z,7.17
2019-05-06T00:33:48.350Z,5.80
2019-05-06T00:38:58.882Z,5.60
2019-05-06T00:44:06.593Z,6.60
2019-05-06T00:49:14.512Z,5.40
2019-05-06T00:54:24.820Z,5.47
2019-05-06T00:59:34.539Z,6.67
2019-05-06T01:04:44.485Z,4.63
2019-05-06T01:09:54.009Z,4.53
2019-05-06T01:15:03.735Z,6.23
2019-05-06T01:20:11.190Z,4.57
2019-05-06T01:25:18.527Z,5.90
2019-05-06T01:30:26.463Z,7.50
2019-05-06T01:35:35.246Z,7.10
2019-05-06T01:40:54.669Z,4.50
2019-05-06T01:46:04.585Z,6.23
2019-05-06T01:51:11.755Z,6.80
2019-05-06T01:56:19.619Z,5.60
2019-05-06T02:01:28.250Z,6.10
2019-05-06T02:06:35.637Z,5.23
2019-05-06T02:11:44.438Z,6.80
2019-05-06T02:16:54.331Z,7.33
2019-05-06T02:22:28.848Z,5.43
2019-05-06T02:27:36.122Z,6.37
2019-05-06T02:32:51.422Z,7.57
2019-05-06T02:37:58.842Z,6.50
2019-05-06T02:43:06.277Z,5.47
2019-05-06T02:48:23.379Z,8.10
2019-05-06T02:53:33.149Z,7.50
2019-05-06T02:58:39.704Z,6.33
2019-05-06T03:03:47.175Z,6.17
2019-05-06T03:08:54.576Z,5.37
2019-05-06T03:14:03.287Z,7.77
2019-05-06T03:19:13.274Z,8.77
2019-05-06T03:24:37.314Z,8.30
2019-05-06T03:29:45.008Z,7.90
2019-05-06T03:35:14.865Z,9.43
2019-05-06T03:40:02.998Z,10.43
2019-05-06T03:45:23.676Z,13.67
2019-05-06T03:50:33.607Z,7.77
2019-05-06T03:55:46.558Z,11.10
2019-05-06T04:00:53.200Z,11.10
2019-05-06T04:06:04.517Z,11.30
2019-05-06T04:11:15.833Z,8.40
2019-05-06T04:16:44.138Z,13.47
2019-05-06T04:22:14.041Z,7.50
2019-05-06T04:27:44.909Z,8.80
2019-05-06T04:32:53.613Z,10.70
2019-05-06T04:38:03.157Z,10.00
2019-05-06T04:43:13.363Z,12.70
2019-05-06T04:48:23.479Z,11.17
2019-05-06T04:53:33.461Z,11.47
2019-05-06T04:58:39.435Z,10.37
2019-05-06T05:03:47.170Z,9.93
2019-05-06T05:08:55.706Z,13.23
2019-05-06T05:14:13.519Z,26.23
2019-05-06T05:19:23.074Z,40.47
2019-05-06T05:24:31.698Z,38.70
2019-05-06T05:29:39.137Z,44.47
2019-05-06T05:34:46.535Z,39.00
2019-05-06T05:39:53.869Z,35.37
2019-05-06T05:45:02.697Z,37.13
2019-05-06T05:50:19.543Z,36.73
2019-05-06T05:55:27.258Z,33.90
2019-05-06T06:00:36.104Z,39.63
2019-05-06T06:05:43.708Z,37.13
2019-05-06T06:10:59.645Z,24.20
2019-05-06T06:16:43.846Z,17.03
2019-05-06T06:21:59.135Z,12.47
2019-05-06T06:27:06.503Z,15.43
2019-05-06T06:32:19.645Z,13.33
2019-05-06T06:37:44.209Z,18.97
2019-05-06T06:42:55.204Z,14.20
2019-05-06T06:48:03.088Z,17.37
2019-05-06T06:53:12.294Z,17.30
2019-05-06T06:58:35.755Z,14.47
2019-05-06T07:03:52.659Z,11.27
2019-05-06T07:08:59.372Z,15.13
2019-05-06T07:14:06.839Z,13.23
2019-05-06T07:19:17.961Z,13.83
2019-05-06T07:24:26.316Z,13.93
2019-05-06T07:29:33.699Z,12.17
2019-05-06T07:34:42.061Z,12.47
2019-05-06T07:39:49.509Z,12.00
2019-05-06T07:45:22.024Z,11.87
2019-05-06T07:50:29.425Z,12.63
2019-05-06T07:55:37.887Z,10.13
2019-05-06T08:00:45.168Z,10.30
2019-05-06T08:05:58.287Z,10.00
2019-05-06T08:11:02.709Z,11.77
2019-05-06T08:16:12.895Z,10.80
2019-05-06T08:21:23.085Z,11.90
2019-05-06T08:26:32.314Z,8.83
2019-05-06T08:31:39.519Z,12.37
2019-05-06T08:37:12.097Z,8.37
2019-05-06T08:42:22.424Z,8.07
2019-05-06T08:47:30.050Z,7.53
2019-05-06T08:53:13.879Z,8.60
2019-05-06T08:58:22.247Z,5.47
2019-05-06T09:03:29.517Z,7.53
2019-05-06T09:08:36.831Z,7.00
2019-05-06T09:13:44.164Z,7.03
2019-05-06T09:18:53.363Z,6.40
2019-05-06T09:24:02.256Z,8.58
2019-05-06T09:29:16.856Z,10.73
2019-05-06T09:34:33.432Z,13.07
2019-05-06T09:39:43.044Z,8.27
2019-05-06T09:44:50.803Z,8.63
2019-05-06T09:49:59.059Z,7.50
2019-05-06T09:55:16.847Z,7.67
2019-05-06T10:00:24.581Z,7.53
2019-05-06T10:05:31.876Z,8.80
2019-05-06T10:10:53.690Z,10.97
2019-05-06T10:15:49.499Z,7.27
2019-05-06T10:20:56.909Z,6.50
2019-05-06T10:26:04.809Z,5.90
2019-05-06T10:31:14.404Z,6.30
2019-05-06T10:36:22.703Z,9.63
2019-05-06T10:41:35.731Z,7.73
2019-05-06T10:46:43.162Z,8.83
2019-05-06T10:52:07.301Z,13.60
2019-05-06T10:57:26.619Z,8.83
2019-05-06T11:02:58.830Z,10.87
2019-05-06T11:08:06.127Z,10.07
2019-05-06T11:13:13.723Z,6.63
2019-05-06T11:18:23.435Z,4.73
2019-05-06T11:23:30.143Z,6.73
2019-05-06T11:28:52.133Z,8.67
2019-05-06T11:34:33.635Z,7.07
2019-05-06T11:39:43.041Z,7.17
2019-05-06T11:44:52.863Z,3.47
2019-05-06T11:49:59.616Z,7.57
2019-05-06T11:55:07.816Z,5.80
2019-05-06T12:00:19.192Z,3.47
2019-05-06T12:05:26.455Z,4.93
2019-05-06T12:10:33.644Z,7.43
2019-05-06T12:15:41.973Z,7.13
2019-05-06T12:20:49.332Z,5.17
2019-05-06T12:25:56.853Z,4.17
2019-05-06T12:31:04.494Z,7.70
2019-05-06T12:36:20.800Z,6.62
2019-05-06T12:41:28.210Z,6.90
2019-05-06T12:46:48.515Z,7.77
2019-05-06T12:51:56.057Z,8.77
2019-05-06T12:57:03.646Z,5.87
2019-05-06T13:02:13.240Z,7.07
2019-05-06T13:07:38.669Z,7.53
2019-05-06T13:12:48.002Z,7.13
2019-05-06T13:17:55.638Z,6.30
2019-05-06T13:23:13.703Z,7.40
2019-05-06T13:28:19.280Z,5.53
2019-05-06T13:33:34.418Z,6.60
2019-05-06T13:38:42.683Z,5.67
2019-05-06T13:44:05.670Z,7.47
2019-05-06T13:49:38.169Z,6.43
2019-05-06T13:54:45.507Z,5.40
2019-05-06T13:59:53.454Z,5.63
2019-05-06T14:05:02.936Z,6.97
2019-05-06T14:10:10.445Z,4.90
2019-05-06T14:15:18.835Z,5.47
2019-05-06T14:20:26.362Z,3.40
2019-05-06T14:26:07.561Z,4.33
2019-05-06T14:31:25.879Z,5.67
2019-05-06T14:36:34.399Z,6.00
2019-05-06T14:41:44.986Z,7.87
2019-05-06T14:47:10.071Z,9.00
2019-05-06T14:52:19.517Z,7.00
2019-05-06T14:57:27.575Z,6.27
2019-05-06T15:02:35.370Z,6.23
2019-05-06T15:07:42.744Z,5.67
2019-05-06T15:12:50.271Z,6.13
2019-05-06T15:17:57.939Z,6.50
2019-05-06T15:23:05.373Z,6.47
2019-05-06T15:28:13.090Z,7.37
2019-05-06T15:33:22.821Z,4.70
2019-05-06T15:38:31.104Z,8.07
2019-05-06T15:43:38.361Z,7.03
2019-05-06T15:48:45.483Z,6.60
2019-05-06T15:53:52.995Z,6.80
2019-05-06T15:59:02.501Z,5.47
2019-05-06T16:04:12.121Z,4.50
2019-05-06T16:09:19.648Z,5.93
2019-05-06T16:14:27.407Z,5.70
2019-05-06T16:19:34.930Z,5.87
2019-05-06T16:24:53.551Z,4.63
2019-05-06T16:30:03.450Z,7.70
2019-05-06T16:35:14.281Z,2.97
2019-05-06T16:40:23.332Z,4.50
2019-05-06T16:45:30.632Z,3.37
2019-05-06T16:50:39.079Z,3.73
2019-05-06T16:56:15.466Z,4.40
2019-05-06T17:01:22.919Z,7.73
2019-05-06T17:06:36.449Z,6.80
2019-05-06T17:11:43.850Z,5.03
2019-05-06T17:16:52.722Z,5.47
2019-05-06T17:22:00.333Z,4.10
2019-05-06T17:27:09.209Z,5.50
2019-05-06T17:32:29.838Z,5.90
2019-05-06T17:37:54.909Z,6.77
2019-05-06T17:43:02.684Z,3.77
2019-05-06T17:48:16.869Z,9.17
2019-05-06T17:53:25.397Z,4.70
2019-05-06T17:58:33.536Z,5.90
2019-05-06T18:03:40.991Z,9.63
2019-05-06T18:08:48.311Z,5.20
2019-05-06T18:13:56.531Z,7.00
2019-05-06T18:19:03.788Z,7.53
2019-05-06T18:24:12.878Z,6.80
2019-05-06T18:29:22.148Z,9.57
2019-05-06T18:34:29.115Z,5.37
2019-05-06T18:39:36.515Z,6.40
2019-05-06T18:44:43.933Z,11.68
2019-05-06T18:49:52.355Z,8.70
2019-05-06T18:54:59.947Z,12.97
2019-05-06T19:00:08.073Z,14.13
2019-05-06T19:05:24.964Z,11.83
2019-05-06T19:10:33.245Z,9.77
2019-05-06T19:15:40.331Z,8.93
2019-05-06T19:20:48.718Z,8.13
2019-05-06T19:25:55.974Z,6.63
2019-05-06T19:31:03.294Z,8.63
2019-05-06T19:36:12.579Z,9.17
2019-05-06T19:41:19.771Z,9.43
2019-05-06T19:46:27.078Z,8.67
2019-05-06T19:51:34.513Z,8.90
2019-05-06T19:56:42.268Z,8.73
2019-05-06T20:01:49.917Z,6.97
2019-05-06T20:07:03.809Z,10.37
2019-05-06T20:12:16.986Z,10.27
2019-05-06T20:17:24.440Z,12.40
2019-05-06T20:22:32.607Z,12.07
2019-05-06T20:27:42.002Z,13.63
2019-05-06T20:32:51.987Z,17.80
2019-05-06T20:38:00.029Z,17.93
2019-05-06T20:43:17.451Z,14.30
2019-05-06T20:48:16.619Z,14.27
2019-05-06T20:53:23.934Z,8.23
2019-05-06T20:58:31.301Z,9.83
2019-05-06T21:03:38.555Z,7.83
2019-05-06T21:08:45.886Z,9.83
2019-05-06T21:13:53.181Z,8.00
2019-05-06T21:19:02.890Z,9.70
2019-05-06T21:24:09.397Z,7.53
2019-05-06T21:29:16.637Z,7.93
2019-05-06T21:34:23.942Z,7.23
2019-05-06T21:39:32.763Z,7.40
2019-05-06T21:44:40.348Z,8.87
2019-05-06T21:49:47.684Z,9.47
2019-05-06T21:54:54.964Z,7.73
2019-05-06T22:00:03.463Z,10.13
2019-05-06T22:05:13.456Z,9.43
2019-05-06T22:10:22.773Z,7.57
2019-05-06T22:15:32.288Z,11.87
2019-05-06T22:20:57.691Z,10.67
2019-05-06T22:26:13.031Z,7.70
2019-05-06T22:31:14.068Z,7.87
2019-05-06T22:36:22.641Z,8.33
2019-05-06T22:41:32.412Z,8.67
2019-05-06T22:46:39.427Z,8.90
2019-05-06T22:51:46.797Z,8.90
2019-05-06T22:56:54.589Z,9.97
2019-05-06T23:02:36.270Z,10.67
2019-05-06T23:07:43.574Z,8.27
2019-05-06T23:12:52.320Z,10.10
2019-05-06T23:18:01.861Z,8.20
2019-05-06T23:23:08.844Z,9.57
2019-05-06T23:28:16.235Z,7.17
2019-05-06T23:33:23.591Z,6.70
2019-05-06T23:39:24.805Z,8.67
2019-05-06T23:45:25.971Z,10.90
2019-05-06T23:51:26.930Z,11.47
2019-05-06T23:56:44.077Z,10.40
